sensor_id;sensor_type;location;lat;lon;timestamp;pressure;altitude;pressure_sealevel;temperature;humidity
61571;BME280;47463;49.884;10.010;2023-01-25T00:00:01;103959.99999999999;;;-0.2;99
61571;BME280;47463;49.884;10.010;2023-01-25T00:05:01;103950;;;-0.2;99
61571;BME280;47463;49.884;10.010;2023-01-25T00:10:01;103930;;;-0.2;99
61571;BME280;47463;49.884;10.010;2023-01-25T00:15:01;103930;;;-0.3;99
61571;BME280;47463;49.884;10.010;2023-01-25T00:20:01;103930;;;-0.2;99
61571;BME280;47463;49.884;10.010;2023-01-25T00:25:01;103909.99999999999;;;-0.3;99
61571;BME280;47463;49.884;10.010;2023-01-25T00:30:01;103920;;;-0.3;99
61571;BME280;47463;49.884;10.010;2023-01-25T00:35:01;103909.99999999999;;;-0.3;98
61571;BME280;47463;49.884;10.010;2023-01-25T00:40:01;103920;;;-0.3;98
61571;BME280;47463;49.884;10.010;2023-01-25T00:45:01;103920;;;-0.3;98
61571;BME280;47463;49.884;10.010;2023-01-25T00:50:01;103920;;;-0.3;98
61571;BME280;47463;49.884;10.010;2023-01-25T00:55:01;103909.99999999999;;;-0.3;98
61571;BME280;47463;49.884;10.010;2023-01-25T01:00:01;103900;;;-0.3;99
61571;BME280;47463;49.884;10.010;2023-01-25T01:05:01;103890.00000000001;;;-0.2;99
61571;BME280;47463;49.884;10.010;2023-01-25T01:10:01;103890.00000000001;;;-0.3;99
61571;BME280;47463;49.884;10.010;2023-01-25T01:15:01;103890.00000000001;;;-0.3;99
61571;BME280;47463;49.884;10.010;2023-01-25T01:20:01;103890.00000000001;;;-0.3;99
61571;BME280;47463;49.884;10.010;2023-01-25T01:25:01;103900;;;-0.3;98
61571;BME280;47463;49.884;10.010;2023-01-25T01:30:01;103890.00000000001;;;-0.3;99
61571;BME280;47463;49.884;10.010;2023-01-25T01:35:01;103890.00000000001;;;-0.3;98
61571;BME280;47463;49.884;10.010;2023-01-25T01:40:01;103880;;;-0.3;99
61571;BME280;47463;49.884;10.010;2023-01-25T01:45:01;103880;;;-0.3;99
61571;BME280;47463;49.884;10.010;2023-01-25T01:50:02;103870;;;-0.3;99
61571;BME280;47463;49.884;10.010;2023-01-25T01:55:01;103880;;;-0.3;99
61571;BME280;47463;49.884;10.010;2023-01-25T02:00:02;103880;;;-0.4;99
61571;BME280;47463;49.884;10.010;2023-01-25T02:05:02;103880;;;-0.4;98
61571;BME280;47463;49.884;10.010;2023-01-25T02:10:01;103880;;;-0.4;99
61571;BME280;47463;49.884;10.010;2023-01-25T02:15:01;103880;;;-0.4;99
61571;BME280;47463;49.884;10.010;2023-01-25T02:20:02;103880;;;-0.4;99
61571;BME280;47463;49.884;10.010;2023-01-25T02:25:03;103870;;;-0.4;99
61571;BME280;47463;49.884;10.010;2023-01-25T02:30:01;103870;;;-0.4;98
61571;BME280;47463;49.884;10.010;2023-01-25T02:35:01;103870;;;-0.4;98
61571;BME280;47463;49.884;10.010;2023-01-25T02:40:01;103859.99999999999;;;-0.4;98
61571;BME280;47463;49.884;10.010;2023-01-25T02:45:01;103870;;;-0.4;98
61571;BME280;47463;49.884;10.010;2023-01-25T02:50:01;103859.99999999999;;;-0.5;98
61571;BME280;47463;49.884;10.010;2023-01-25T02:55:01;103850;;;-0.5;98
61571;BME280;47463;49.884;10.010;2023-01-25T03:00:01;103850;;;-0.5;98
61571;BME280;47463;49.884;10.010;2023-01-25T03:05:01;103850;;;-0.5;99
61571;BME280;47463;49.884;10.010;2023-01-25T03:10:01;103840.00000000001;;;-0.5;99
61571;BME280;47463;49.884;10.010;2023-01-25T03:15:01;103850;;;-0.5;99
61571;BME280;47463;49.884;10.010;2023-01-25T03:20:01;103840.00000000001;;;-0.5;98
61571;BME280;47463;49.884;10.010;2023-01-25T03:25:01;103840.00000000001;;;-0.6;98
61571;BME280;47463;49.884;10.010;2023-01-25T03:30:01;103850;;;-0.6;98
61571;BME280;47463;49.884;10.010;2023-01-25T03:35:01;103850;;;-0.5;98
61571;BME280;47463;49.884;10.010;2023-01-25T03:40:01;103840.00000000001;;;-0.5;99
61571;BME280;47463;49.884;10.010;2023-01-25T03:45:01;103830;;;-0.5;99
61571;BME280;47463;49.884;10.010;2023-01-25T03:50:01;103830;;;-0.5;99
61571;BME280;47463;49.884;10.010;2023-01-25T03:55:01;103830;;;-0.6;99
61571;BME280;47463;49.884;10.010;2023-01-25T04:00:01;103820;;;-0.6;98
61571;BME280;47463;49.884;10.010;2023-01-25T04:05:01;103830;;;-0.6;99
61571;BME280;47463;49.884;10.010;2023-01-25T04:10:01;103820;;;-0.6;99
61571;BME280;47463;49.884;10.010;2023-01-25T04:15:01;103820;;;-0.6;99
61571;BME280;47463;49.884;10.010;2023-01-25T04:20:01;103820;;;-0.6;99
61571;BME280;47463;49.884;10.010;2023-01-25T04:25:01;103809.99999999999;;;-0.6;99
61571;BME280;47463;49.884;10.010;2023-01-25T04:30:01;103800;;;-0.6;99
61571;BME280;47463;49.884;10.010;2023-01-25T04:35:01;103800;;;-0.6;99
61571;BME280;47463;49.884;10.010;2023-01-25T04:40:01;103790.00000000001;;;-0.6;99
61571;BME280;47463;49.884;10.010;2023-01-25T04:45:01;103790.00000000001;;;-0.6;99
61571;BME280;47463;49.884;10.010;2023-01-25T04:50:01;103770;;;-0.6;99
61571;BME280;47463;49.884;10.010;2023-01-25T04:55:01;103770;;;-0.6;99
61571;BME280;47463;49.884;10.010;2023-01-25T05:00:01;103770;;;-0.7;99
61571;BME280;47463;49.884;10.010;2023-01-25T05:05:01;103770;;;-0.6;99
61571;BME280;47463;49.884;10.010;2023-01-25T05:10:01;103759.99999999999;;;-0.6;99
61571;BME280;47463;49.884;10.010;2023-01-25T05:15:01;103759.99999999999;;;-0.7;99
61571;BME280;47463;49.884;10.010;2023-01-25T05:20:01;103750;;;-0.6;99
61571;BME280;47463;49.884;10.010;2023-01-25T05:25:01;103750;;;-0.6;99
61571;BME280;47463;49.884;10.010;2023-01-25T05:30:01;103750;;;-0.6;99
61571;BME280;47463;49.884;10.010;2023-01-25T05:35:01;103740.00000000001;;;-0.6;99
61571;BME280;47463;49.884;10.010;2023-01-25T05:40:01;103740.00000000001;;;-0.6;99
61571;BME280;47463;49.884;10.010;2023-01-25T05:45:01;103730;;;-0.6;99
61571;BME280;47463;49.884;10.010;2023-01-25T05:50:01;103730;;;-0.6;99
61571;BME280;47463;49.884;10.010;2023-01-25T05:55:01;103750;;;-0.6;99
61571;BME280;47463;49.884;10.010;2023-01-25T06:00:01;103730;;;-0.6;99
61571;BME280;47463;49.884;10.010;2023-01-25T06:05:01;103730;;;-0.6;99
61571;BME280;47463;49.884;10.010;2023-01-25T06:10:01;103720;;;-0.6;99
61571;BME280;47463;49.884;10.010;2023-01-25T06:15:01;103720;;;-0.6;99
61571;BME280;47463;49.884;10.010;2023-01-25T06:20:01;103720;;;-0.5;99
61571;BME280;47463;49.884;10.010;2023-01-25T06:25:01;103720;;;-0.6;99
61571;BME280;47463;49.884;10.010;2023-01-25T06:30:01;103720;;;-0.5;99
61571;BME280;47463;49.884;10.010;2023-01-25T06:35:01;103720;;;-0.5;99
61571;BME280;47463;49.884;10.010;2023-01-25T06:40:01;103720;;;-0.5;99
61571;BME280;47463;49.884;10.010;2023-01-25T06:45:01;103720;;;-0.5;99
61571;BME280;47463;49.884;10.010;2023-01-25T06:50:01;103720;;;-0.5;99
61571;BME280;47463;49.884;10.010;2023-01-25T06:55:01;103720;;;-0.5;99
61571;BME280;47463;49.884;10.010;2023-01-25T07:00:01;103720;;;-0.5;99
61571;BME280;47463;49.884;10.010;2023-01-25T07:05:01;103720;;;-0.6;99
61571;BME280;47463;49.884;10.010;2023-01-25T07:10:01;103730;;;-0.6;99
61571;BME280;47463;49.884;10.010;2023-01-25T07:15:01;103720;;;-0.6;99
61571;BME280;47463;49.884;10.010;2023-01-25T07:20:01;103709.99999999999;;;-0.6;99
61571;BME280;47463;49.884;10.010;2023-01-25T07:25:01;103709.99999999999;;;-0.6;99
61571;BME280;47463;49.884;10.010;2023-01-25T07:30:01;103700;;;-0.6;99
61571;BME280;47463;49.884;10.010;2023-01-25T07:35:01;103700;;;-0.6;99
61571;BME280;47463;49.884;10.010;2023-01-25T07:40:01;103709.99999999999;;;-0.6;99
61571;BME280;47463;49.884;10.010;2023-01-25T07:45:01;103709.99999999999;;;-0.6;99
61571;BME280;47463;49.884;10.010;2023-01-25T07:50:01;103709.99999999999;;;-0.6;99
61571;BME280;47463;49.884;10.010;2023-01-25T07:55:01;103700;;;-0.6;99
61571;BME280;47463;49.884;10.010;2023-01-25T08:00:01;103700;;;-0.5;99
61571;BME280;47463;49.884;10.010;2023-01-25T08:05:01;103700;;;-0.5;99
61571;BME280;47463;49.884;10.010;2023-01-25T08:10:01;103700;;;-0.5;99
61571;BME280;47463;49.884;10.010;2023-01-25T08:15:01;103709.99999999999;;;-0.5;99
61571;BME280;47463;49.884;10.010;2023-01-25T08:20:01;103700;;;-0.5;99
61571;BME280;47463;49.884;10.010;2023-01-25T08:25:01;103700;;;-0.5;99
61571;BME280;47463;49.884;10.010;2023-01-25T08:30:01;103700;;;-0.5;99
61571;BME280;47463;49.884;10.010;2023-01-25T08:35:01;103690.00000000001;;;-0.6;99
61571;BME280;47463;49.884;10.010;2023-01-25T08:40:01;103690.00000000001;;;-0.6;99
61571;BME280;47463;49.884;10.010;2023-01-25T08:45:01;103690.00000000001;;;-0.6;99
61571;BME280;47463;49.884;10.010;2023-01-25T08:50:01;103690.00000000001;;;-0.6;99
61571;BME280;47463;49.884;10.010;2023-01-25T08:55:01;103680;;;-0.6;99
61571;BME280;47463;49.884;10.010;2023-01-25T09:00:01;103670;;;-0.6;99
61571;BME280;47463;49.884;10.010;2023-01-25T09:05:01;103680;;;-0.6;99
61571;BME280;47463;49.884;10.010;2023-01-25T09:10:01;103659.99999999999;;;-0.6;99
61571;BME280;47463;49.884;10.010;2023-01-25T09:15:01;103670;;;-0.5;99
61571;BME280;47463;49.884;10.010;2023-01-25T09:20:01;103659.99999999999;;;-0.5;99
61571;BME280;47463;49.884;10.010;2023-01-25T09:25:01;103659.99999999999;;;-0.5;99
61571;BME280;47463;49.884;10.010;2023-01-25T09:30:01;103650;;;-0.5;99
61571;BME280;47463;49.884;10.010;2023-01-25T09:35:01;103650;;;-0.5;99
61571;BME280;47463;49.884;10.010;2023-01-25T09:40:01;103659.99999999999;;;-0.4;99
61571;BME280;47463;49.884;10.010;2023-01-25T09:45:05;103659.99999999999;;;-0.5;99
61571;BME280;47463;49.884;10.010;2023-01-25T09:50:08;103650;;;-0.5;99
61571;BME280;47463;49.884;10.010;2023-01-25T09:55:01;103659.99999999999;;;-0.4;99
61571;BME280;47463;49.884;10.010;2023-01-25T10:00:02;103659.99999999999;;;-0.4;99
61571;BME280;47463;49.884;10.010;2023-01-25T10:05:01;103650;;;-0.4;99
61571;BME280;47463;49.884;10.010;2023-01-25T10:10:02;103659.99999999999;;;-0.3;99
61571;BME280;47463;49.884;10.010;2023-01-25T10:15:01;103650;;;-0.4;99
61571;BME280;47463;49.884;10.010;2023-01-25T10:20:03;103650;;;-0.3;99
61571;BME280;47463;49.884;10.010;2023-01-25T10:25:05;103640.00000000001;;;-0.3;99
61571;BME280;47463;49.884;10.010;2023-01-25T10:30:02;103640.00000000001;;;-0.3;99
61571;BME280;47463;49.884;10.010;2023-01-25T10:35:17;103640.00000000001;;;-0.3;99
61571;BME280;47463;49.884;10.010;2023-01-25T10:40:01;103630;;;-0.3;99
61571;BME280;47463;49.884;10.010;2023-01-25T10:45:01;103620;;;-0.3;99
61571;BME280;47463;49.884;10.010;2023-01-25T10:50:01;103609.99999999999;;;-0.3;99
61571;BME280;47463;49.884;10.010;2023-01-25T10:55:05;103600;;;-0.3;99
61571;BME280;47463;49.884;10.010;2023-01-25T11:00:02;103600;;;-0.3;99
61571;BME280;47463;49.884;10.010;2023-01-25T11:05:14;103590.00000000001;;;-0.3;99
61571;BME280;47463;49.884;10.010;2023-01-25T11:10:01;103580;;;-0.3;99
61571;BME280;47463;49.884;10.010;2023-01-25T11:15:01;103570;;;-0.2;99
61571;BME280;47463;49.884;10.010;2023-01-25T11:20:05;103559.99999999999;;;-0.2;98
61571;BME280;47463;49.884;10.010;2023-01-25T11:25:21;103550;;;-0.2;98
61571;BME280;47463;49.884;10.010;2023-01-25T11:30:09;103540.00000000001;;;-0.2;97
61571;BME280;47463;49.884;10.010;2023-01-25T11:35:01;103530;;;-0.1;97
61571;BME280;47463;49.884;10.010;2023-01-25T11:40:04;103520;;;-0.1;97
61571;BME280;47463;49.884;10.010;2023-01-25T11:45:07;103520;;;-0.1;96
61571;BME280;47463;49.884;10.010;2023-01-25T11:50:02;103509.99999999999;;;-0.1;95
61571;BME280;47463;49.884;10.010;2023-01-25T11:55:05;103490.00000000001;;;-0.1;95
61571;BME280;47463;49.884;10.010;2023-01-25T12:00:03;103480;;;-0.1;95
61571;BME280;47463;49.884;10.010;2023-01-25T12:05:03;103459.99999999999;;;-0.1;96
61571;BME280;47463;49.884;10.010;2023-01-25T12:10:03;103450;;;-0.1;96
61571;BME280;47463;49.884;10.010;2023-01-25T12:15:13;103440.00000000001;;;-0.1;96
61571;BME280;47463;49.884;10.010;2023-01-25T12:20:05;103440.00000000001;;;-0.1;95
61571;BME280;47463;49.884;10.010;2023-01-25T12:25:02;103420;;;-0.1;95
61571;BME280;47463;49.884;10.010;2023-01-25T12:30:01;103430;;;-0.1;95
61571;BME280;47463;49.884;10.010;2023-01-25T12:35:03;103420;;;-0.1;95
61571;BME280;47463;49.884;10.010;2023-01-25T12:40:02;103409.99999999999;;;-0.1;96
61571;BME280;47463;49.884;10.010;2023-01-25T12:45:02;103400;;;-0.1;95
61571;BME280;47463;49.884;10.010;2023-01-25T12:50:02;103390.00000000001;;;-0.1;95
61571;BME280;47463;49.884;10.010;2023-01-25T12:55:02;103390.00000000001;;;-0.1;95
61571;BME280;47463;49.884;10.010;2023-01-25T13:00:03;103380;;;-0.1;95
61571;BME280;47463;49.884;10.010;2023-01-25T13:05:02;103370;;;-0.2;94
61571;BME280;47463;49.884;10.010;2023-01-25T13:10:01;103350;;;-0.2;95
61571;BME280;47463;49.884;10.010;2023-01-25T13:15:01;103350;;;-0.2;94
61571;BME280;47463;49.884;10.010;2023-01-25T13:20:01;103330;;;-0.1;94
61571;BME280;47463;49.884;10.010;2023-01-25T13:25:17;103320;;;-0.2;93
61571;BME280;47463;49.884;10.010;2023-01-25T13:30:01;103320;;;-0.2;93
61571;BME280;47463;49.884;10.010;2023-01-25T13:35:01;103320;;;-0.3;93
61571;BME280;47463;49.884;10.010;2023-01-25T13:40:01;103309.99999999999;;;-0.2;93
61571;BME280;47463;49.884;10.010;2023-01-25T13:45:01;103309.99999999999;;;-0.1;93
61571;BME280;47463;49.884;10.010;2023-01-25T13:50:01;103300;;;-0.2;94
61571;BME280;47463;49.884;10.010;2023-01-25T13:55:01;103300;;;-0.3;94
61571;BME280;47463;49.884;10.010;2023-01-25T14:00:02;103300;;;-0.2;94
61571;BME280;47463;49.884;10.010;2023-01-25T14:05:01;103280;;;-0.3;94
61571;BME280;47463;49.884;10.010;2023-01-25T14:10:05;103270;;;-0.3;94
61571;BME280;47463;49.884;10.010;2023-01-25T14:15:17;103259.99999999999;;;-0.3;94
61571;BME280;47463;49.884;10.010;2023-01-25T14:20:01;103250;;;-0.3;94
61571;BME280;47463;49.884;10.010;2023-01-25T14:25:02;103259.99999999999;;;-0.3;94
61571;BME280;47463;49.884;10.010;2023-01-25T14:30:02;103250;;;-0.4;94
61571;BME280;47463;49.884;10.010;2023-01-25T14:35:23;103250;;;-0.4;94
61571;BME280;47463;49.884;10.010;2023-01-25T14:40:01;103240.00000000001;;;-0.4;94
61571;BME280;47463;49.884;10.010;2023-01-25T14:45:01;103230;;;-0.4;94
61571;BME280;47463;49.884;10.010;2023-01-25T14:50:33;103220;;;-0.4;94
61571;BME280;47463;49.884;10.010;2023-01-25T14:55:01;103209.99999999999;;;-0.4;94
61571;BME280;47463;49.884;10.010;2023-01-25T15:00:02;103209.99999999999;;;-0.4;94
61571;BME280;47463;49.884;10.010;2023-01-25T15:05:01;103200;;;-0.4;94
61571;BME280;47463;49.884;10.010;2023-01-25T15:10:02;103200;;;-0.4;94
61571;BME280;47463;49.884;10.010;2023-01-25T15:15:01;103209.99999999999;;;-0.4;94
61571;BME280;47463;49.884;10.010;2023-01-25T15:20:01;103190.00000000001;;;-0.4;94
61571;BME280;47463;49.884;10.010;2023-01-25T15:25:01;103190.00000000001;;;-0.4;94
61571;BME280;47463;49.884;10.010;2023-01-25T15:30:01;103190.00000000001;;;-0.4;94
61571;BME280;47463;49.884;10.010;2023-01-25T15:35:01;103190.00000000001;;;-0.4;94
61571;BME280;47463;49.884;10.010;2023-01-25T15:40:01;103180;;;-0.4;95
61571;BME280;47463;49.884;10.010;2023-01-25T15:45:01;103170;;;-0.4;94
61571;BME280;47463;49.884;10.010;2023-01-25T15:50:01;103050;;;-0.5;94
61571;BME280;47463;49.884;10.010;2023-01-25T15:55:01;99450;;;-0.5;95
61571;BME280;47463;49.884;10.010;2023-01-25T16:00:01;99450;;;-0.4;95
61571;BME280;47463;49.884;10.010;2023-01-25T16:05:01;99450;;;-0.5;95
61571;BME280;47463;49.884;10.010;2023-01-25T16:10:01;99450;;;-0.4;95
61571;BME280;47463;49.884;10.010;2023-01-25T16:15:01;99420;;;-0.5;95
61571;BME280;47463;49.884;10.010;2023-01-25T16:20:01;99410;;;-0.5;95
61571;BME280;47463;49.884;10.010;2023-01-25T16:25:01;99410;;;-0.5;95
61571;BME280;47463;49.884;10.010;2023-01-25T16:30:01;99410;;;-0.5;94
61571;BME280;47463;49.884;10.010;2023-01-25T16:35:01;99410;;;-0.5;95
61571;BME280;47463;49.884;10.010;2023-01-25T16:40:01;99410;;;-0.5;94
61571;BME280;47463;49.884;10.010;2023-01-25T16:45:01;99420;;;-0.6;94
61571;BME280;47463;49.884;10.010;2023-01-25T16:50:01;99410;;;-0.6;94
61571;BME280;47463;49.884;10.010;2023-01-25T16:55:01;99400;;;-0.6;94
61571;BME280;47463;49.884;10.010;2023-01-25T17:00:01;99400;;;-0.6;94
61571;BME280;47463;49.884;10.010;2023-01-25T17:05:01;99400;;;-0.6;94
61571;BME280;47463;49.884;10.010;2023-01-25T17:10:01;102870;;;-0.6;94
61571;BME280;47463;49.884;10.010;2023-01-25T17:15:01;102859.99999999999;;;-0.6;95
61571;BME280;47463;49.884;10.010;2023-01-25T17:20:01;102870;;;-0.6;94
61571;BME280;47463;49.884;10.010;2023-01-25T17:25:01;102870;;;-0.7;94
61571;BME280;47463;49.884;10.010;2023-01-25T17:30:01;102870;;;-0.7;94
61571;BME280;47463;49.884;10.010;2023-01-25T17:35:01;102859.99999999999;;;-0.7;95
61571;BME280;47463;49.884;10.010;2023-01-25T17:40:01;102859.99999999999;;;-0.7;95
61571;BME280;47463;49.884;10.010;2023-01-25T17:45:01;102859.99999999999;;;-0.7;94
61571;BME280;47463;49.884;10.010;2023-01-25T17:50:01;102840.00000000001;;;-0.7;94
61571;BME280;47463;49.884;10.010;2023-01-25T17:55:01;102900;;;-0.7;94
61571;BME280;47463;49.884;10.010;2023-01-25T18:00:01;102970;;;-0.7;94
61571;BME280;47463;49.884;10.010;2023-01-25T18:05:01;102980;;;-0.7;94
61571;BME280;47463;49.884;10.010;2023-01-25T18:10:01;102980;;;-0.7;93
61571;BME280;47463;49.884;10.010;2023-01-25T18:15:01;102990.00000000001;;;-0.7;93
61571;BME280;47463;49.884;10.010;2023-01-25T18:20:01;103000;;;-0.7;94
61571;BME280;47463;49.884;10.010;2023-01-25T18:25:01;103000;;;-0.7;94
61571;BME280;47463;49.884;10.010;2023-01-25T18:30:02;103000;;;-0.7;94
61571;BME280;47463;49.884;10.010;2023-01-25T18:35:01;103000;;;-0.8;94
61571;BME280;47463;49.884;10.010;2023-01-25T18:40:01;103000;;;-0.8;94
61571;BME280;47463;49.884;10.010;2023-01-25T18:45:01;103000;;;-0.8;94
61571;BME280;47463;49.884;10.010;2023-01-25T18:50:01;103000;;;-0.8;94
61571;BME280;47463;49.884;10.010;2023-01-25T18:55:01;103000;;;-0.8;94
61571;BME280;47463;49.884;10.010;2023-01-25T19:00:01;103000;;;-0.8;94
61571;BME280;47463;49.884;10.010;2023-01-25T19:05:01;103000;;;-0.8;94
61571;BME280;47463;49.884;10.010;2023-01-25T19:10:01;102990.00000000001;;;-0.8;94
61571;BME280;47463;49.884;10.010;2023-01-25T19:15:01;103000;;;-0.8;94
61571;BME280;47463;49.884;10.010;2023-01-25T19:20:01;102990.00000000001;;;-0.8;94
61571;BME280;47463;49.884;10.010;2023-01-25T19:25:01;102980;;;-0.8;94
61571;BME280;47463;49.884;10.010;2023-01-25T19:30:01;102980;;;-0.8;94
61571;BME280;47463;49.884;10.010;2023-01-25T19:35:01;102980;;;-0.9;94
61571;BME280;47463;49.884;10.010;2023-01-25T19:40:01;102980;;;-0.9;94
61571;BME280;47463;49.884;10.010;2023-01-25T19:45:01;102970;;;-0.9;94
61571;BME280;47463;49.884;10.010;2023-01-25T19:50:01;102970;;;-0.9;95
61571;BME280;47463;49.884;10.010;2023-01-25T19:55:01;102970;;;-0.9;95
61571;BME280;47463;49.884;10.010;2023-01-25T20:00:01;102959.99999999999;;;-0.9;95
61571;BME280;47463;49.884;10.010;2023-01-25T20:05:01;102959.99999999999;;;-0.8;95
61571;BME280;47463;49.884;10.010;2023-01-25T20:10:01;102930;;;-0.9;95
61571;BME280;47463;49.884;10.010;2023-01-25T20:15:01;102940.00000000001;;;-0.9;95
61571;BME280;47463;49.884;10.010;2023-01-25T20:20:01;102930;;;-1;94
61571;BME280;47463;49.884;10.010;2023-01-25T20:25:01;102930;;;-1;95
61571;BME280;47463;49.884;10.010;2023-01-25T20:30:01;102930;;;-1.1;94
61571;BME280;47463;49.884;10.010;2023-01-25T20:35:01;102930;;;-1;94
61571;BME280;47463;49.884;10.010;2023-01-25T20:40:01;102930;;;-1;94
61571;BME280;47463;49.884;10.010;2023-01-25T20:45:01;102920;;;-1;94
61571;BME280;47463;49.884;10.010;2023-01-25T20:50:01;102920;;;-1;94
61571;BME280;47463;49.884;10.010;2023-01-25T20:55:01;102900;;;-1;94
61571;BME280;47463;49.884;10.010;2023-01-25T21:00:01;102880;;;-1;94
61571;BME280;47463;49.884;10.010;2023-01-25T21:05:01;102880;;;-1;94
61571;BME280;47463;49.884;10.010;2023-01-25T21:10:01;102870;;;-1;94
61571;BME280;47463;49.884;10.010;2023-01-25T21:15:01;102870;;;-1;94
61571;BME280;47463;49.884;10.010;2023-01-25T21:20:01;102859.99999999999;;;-1;95
61571;BME280;47463;49.884;10.010;2023-01-25T21:25:01;102850;;;-1;95
61571;BME280;47463;49.884;10.010;2023-01-25T21:30:01;102840.00000000001;;;-1;94
61571;BME280;47463;49.884;10.010;2023-01-25T21:35:01;102840.00000000001;;;-1;95
61571;BME280;47463;49.884;10.010;2023-01-25T21:40:01;102840.00000000001;;;-1;95
61571;BME280;47463;49.884;10.010;2023-01-25T21:45:01;102840.00000000001;;;-1;95
61571;BME280;47463;49.884;10.010;2023-01-25T21:50:01;102840.00000000001;;;-1;96
61571;BME280;47463;49.884;10.010;2023-01-25T21:55:01;102840.00000000001;;;-1;95
61571;BME280;47463;49.884;10.010;2023-01-25T22:00:01;102830;;;-1;95
61571;BME280;47463;49.884;10.010;2023-01-25T22:05:01;102850;;;-1;95
61571;BME280;47463;49.884;10.010;2023-01-25T22:10:01;102840.00000000001;;;-1;94
61571;BME280;47463;49.884;10.010;2023-01-25T22:15:01;102850;;;-1;94
61571;BME280;47463;49.884;10.010;2023-01-25T22:20:01;102840.00000000001;;;-1;95
61571;BME280;47463;49.884;10.010;2023-01-25T22:25:01;102840.00000000001;;;-1.1;94
61571;BME280;47463;49.884;10.010;2023-01-25T22:30:01;102840.00000000001;;;-1.1;94
61571;BME280;47463;49.884;10.010;2023-01-25T22:35:01;102830;;;-1.1;94
61571;BME280;47463;49.884;10.010;2023-01-25T22:40:01;102830;;;-1.1;94
61571;BME280;47463;49.884;10.010;2023-01-25T22:45:01;102809.99999999999;;;-1.1;94
61571;BME280;47463;49.884;10.010;2023-01-25T22:50:01;102800;;;-1.1;94
61571;BME280;47463;49.884;10.010;2023-01-25T22:55:01;102790.00000000001;;;-1.1;94
61571;BME280;47463;49.884;10.010;2023-01-25T23:00:01;102790.00000000001;;;-1.1;94
61571;BME280;47463;49.884;10.010;2023-01-25T23:05:01;102780;;;-1.1;94
61571;BME280;47463;49.884;10.010;2023-01-25T23:10:01;102759.99999999999;;;-1.2;94
61571;BME280;47463;49.884;10.010;2023-01-25T23:15:01;102759.99999999999;;;-1.2;94
61571;BME280;47463;49.884;10.010;2023-01-25T23:20:01;102740.00000000001;;;-1.2;94
61571;BME280;47463;49.884;10.010;2023-01-25T23:25:01;102740.00000000001;;;-1.2;94
61571;BME280;47463;49.884;10.010;2023-01-25T23:30:01;102730;;;-1.1;94
61571;BME280;47463;49.884;10.010;2023-01-25T23:35:01;102720;;;-1.2;94
61571;BME280;47463;49.884;10.010;2023-01-25T23:40:01;102720;;;-1.2;94
61571;BME280;47463;49.884;10.010;2023-01-25T23:45:01;102720;;;-1.2;95
61571;BME280;47463;49.884;10.010;2023-01-25T23:50:01;102709.99999999999;;;-1.2;94
61571;BME280;47463;49.884;10.010;2023-01-25T23:55:01;102700;;;-1.2;94
